Time;durP1;ratioP1;P1;durP2;ratioP2;P2;SDS_P1;SDS_P2;PMS_P1;PMS_P2;Temp;Humidity;BMP_temperature;BMP_pressure;BME280_temperature;BME280_humidity;BME280_pressure;Samples;Min_cycle;Max_cycle;Signal;HPM_P1;HPM_P2
2022/05/26 00:01:07;;;;;;;26.38;8.45;;;14.40;99.90;;;;;;5051713;28;20095;-61
2022/05/26 00:03:34;;;;;;;23.30;7.80;;;14.40;99.90;;;;;;5061578;28;20075;-60
2022/05/26 00:06:01;;;;;;;31.10;8.20;;;14.40;99.90;;;;;;5059315;28;20044;-60
2022/05/26 00:08:28;;;;;;;29.55;8.70;;;14.40;99.90;;;;;;5059954;28;20125;-61
2022/05/26 00:10:55;;;;;;;25.90;8.43;;;14.40;99.90;;;;;;5059666;28;20052;-61
2022/05/26 00:13:21;;;;;;;27.77;8.15;;;14.30;99.90;;;;;;5038041;28;20051;-61
2022/05/26 00:15:48;;;;;;;33.20;8.50;;;14.30;99.90;;;;;;5057650;28;20053;-61
2022/05/26 00:18:14;;;;;;;30.73;8.18;;;14.30;99.90;;;;;;5062489;28;20048;-61
2022/05/26 00:20:40;;;;;;;29.83;8.27;;;14.30;99.90;;;;;;5061043;28;20105;-61
2022/05/26 00:23:06;;;;;;;27.17;7.55;;;14.30;99.90;;;;;;5052568;28;20052;-59
2022/05/26 00:25:31;;;;;;;32.33;8.30;;;14.30;99.90;;;;;;5054963;28;20048;-61
2022/05/26 00:27:57;;;;;;;31.95;8.02;;;14.20;99.90;;;;;;5058808;28;20059;-60
2022/05/26 00:30:24;;;;;;;33.17;8.40;;;14.20;99.90;;;;;;5049988;28;20057;-61
2022/05/26 00:32:49;;;;;;;27.88;8.00;;;14.20;99.90;;;;;;5047964;28;20526;-60
2022/05/26 00:35:16;;;;;;;31.92;7.95;;;14.20;99.90;;;;;;5061000;28;20043;-61
2022/05/26 00:37:46;;;;;;;28.17;8.15;;;14.20;99.90;;;;;;5059550;28;20135;-60
2022/05/26 00:40:14;;;;;;;31.90;8.98;;;14.20;99.90;;;;;;5032950;28;20055;-61
2022/05/26 00:42:40;;;;;;;31.27;8.50;;;14.10;99.90;;;;;;5057373;28;20037;-61
2022/05/26 00:45:07;;;;;;;37.10;9.35;;;14.10;99.90;;;;;;5061547;28;20581;-60
2022/05/26 00:47:40;;;;;;;33.80;8.85;;;14.10;99.90;;;;;;5060046;28;20060;-61
2022/05/26 00:50:23;;;;;;;42.10;9.05;;;14.10;99.90;;;;;;5057929;28;20063;-61
2022/05/26 00:53:03;;;;;;;33.95;8.70;;;14.00;99.90;;;;;;5057137;28;20043;-61
2022/05/26 00:55:34;;;;;;;33.28;8.75;;;14.00;99.90;;;;;;5059641;28;20052;-61
2022/05/26 00:58:17;;;;;;;29.98;8.52;;;14.00;99.90;;;;;;5060108;28;20041;-61
2022/05/26 01:00:43;;;;;;;33.17;8.90;;;14.00;99.90;;;;;;5062117;28;20044;-61
2022/05/26 01:03:20;;;;;;;30.75;8.63;;;13.90;99.90;;;;;;5061809;28;20063;-61
2022/05/26 01:06:11;;;;;;;31.48;8.15;;;13.90;99.90;;;;;;5058427;28;21011;-60
2022/05/26 01:08:51;;;;;;;33.35;8.52;;;13.90;99.90;;;;;;5060178;28;20041;-60
2022/05/26 01:11:17;;;;;;;41.90;9.35;;;13.90;99.90;;;;;;5060660;28;20044;-61
2022/05/26 01:14:05;;;;;;;29.23;8.10;;;13.90;99.90;;;;;;5056981;28;20044;-61
2022/05/26 01:16:40;;;;;;;43.97;9.43;;;13.90;99.90;;;;;;5040336;28;20063;-61
2022/05/26 01:19:34;;;;;;;31.75;8.02;;;13.90;99.90;;;;;;5061517;28;20084;-61
2022/05/26 01:22:21;;;;;;;34.25;8.40;;;13.90;99.90;;;;;;5057624;28;20126;-60
2022/05/26 01:25:20;;;;;;;40.05;8.20;;;13.90;99.90;;;;;;5058051;28;20052;-61
2022/05/26 01:28:12;;;;;;;37.53;8.32;;;13.90;99.90;;;;;;5052990;28;20052;-61
2022/05/26 01:30:43;;;;;;;34.40;7.32;;;13.90;99.90;;;;;;5022160;28;20044;-61
2022/05/26 01:33:36;;;;;;;30.77;7.60;;;13.90;99.90;;;;;;5055946;28;20124;-60
2022/05/26 01:36:21;;;;;;;25.70;6.63;;;13.90;99.90;;;;;;5045459;28;20085;-60
2022/05/26 01:38:49;;;;;;;28.05;7.18;;;13.90;99.90;;;;;;5052793;28;20052;-60
2022/05/26 01:41:36;;;;;;;33.35;6.50;;;13.90;99.90;;;;;;5058276;28;20048;-61
2022/05/26 01:44:22;;;;;;;25.13;6.03;;;13.90;99.90;;;;;;5054250;28;20623;-60
2022/05/26 01:46:50;;;;;;;33.53;6.30;;;13.90;99.90;;;;;;5052219;28;20517;-60
2022/05/26 01:49:27;;;;;;;31.15;6.97;;;13.90;99.90;;;;;;5054549;28;20052;-59
2022/05/26 01:52:07;;;;;;;32.53;7.70;;;13.90;99.90;;;;;;5049076;28;20060;-59
2022/05/26 01:54:49;;;;;;;26.52;6.28;;;13.90;99.90;;;;;;5057220;28;20048;-61
2022/05/26 01:57:43;;;;;;;25.65;6.95;;;13.90;99.90;;;;;;5054642;28;20052;-60
2022/05/26 02:00:13;;;;;;;31.80;6.90;;;13.90;99.90;;;;;;5050037;28;20048;-60
2022/05/26 02:02:56;;;;;;;36.13;6.95;;;13.90;99.90;;;;;;5052690;28;20159;-60
2022/05/26 02:05:26;;;;;;;31.38;6.63;;;13.90;99.90;;;;;;5053237;28;20070;-61
2022/05/26 02:07:58;;;;;;;38.42;7.45;;;13.90;99.90;;;;;;5053399;28;20064;-61
2022/05/26 02:10:59;;;;;;;33.83;7.15;;;13.90;99.90;;;;;;5058083;28;20498;-60
2022/05/26 02:13:36;;;;;;;35.00;6.97;;;13.90;99.90;;;;;;5055043;28;20047;-60
2022/05/26 02:16:16;;;;;;;31.13;7.10;;;13.90;99.90;;;;;;5056604;28;20048;-60
2022/05/26 02:19:01;;;;;;;33.58;7.40;;;13.90;99.90;;;;;;5058350;28;20152;-60
2022/05/26 02:21:48;;;;;;;39.80;7.05;;;13.90;99.90;;;;;;5052530;28;20040;-60
2022/05/26 02:24:36;;;;;;;37.40;7.60;;;13.90;99.90;;;;;;5052667;28;20569;-60
2022/05/26 02:27:02;;;;;;;35.22;7.35;;;13.80;99.90;;;;;;5057005;28;22186;-61
2022/05/26 02:32:13;;;;;;;28.02;6.70;;;13.80;99.90;;;;;;5038113;28;20113;-59
2022/05/26 02:34:41;;;;;;;27.60;7.15;;;13.80;99.90;;;;;;5058611;28;20040;-60
2022/05/26 02:37:09;;;;;;;28.38;6.32;;;13.80;99.90;;;;;;5050760;28;20508;-60
2022/05/26 02:39:35;;;;;;;25.25;6.70;;;13.70;99.90;;;;;;5050635;28;20055;-60
2022/05/26 02:42:01;;;;;;;26.35;6.25;;;13.70;99.90;;;;;;5057505;28;20044;-60
2022/05/26 02:44:30;;;;;;;31.90;6.53;;;13.70;99.90;;;;;;5054818;28;20055;-60
2022/05/26 02:47:18;;;;;;;24.73;5.57;;;13.70;99.90;;;;;;5055928;28;20394;-60
2022/05/26 02:50:01;;;;;;;22.20;5.50;;;13.60;99.90;;;;;;5057281;28;20117;-59
2022/05/26 02:53:05;;;;;;;26.20;5.80;;;13.60;99.90;;;;;;5050239;28;20102;-60
2022/05/26 02:55:53;;;;;;;34.30;5.93;;;13.60;99.90;;;;;;5005525;28;20049;-60
2022/05/26 02:58:48;;;;;;;25.92;6.05;;;13.60;99.90;;;;;;5047678;28;20482;-60
2022/05/26 03:01:18;;;;;;;21.40;5.10;;;13.60;99.90;;;;;;5054617;28;20045;-59
2022/05/26 03:04:05;;;;;;;24.83;5.50;;;13.50;99.90;;;;;;5055465;28;20043;-60
2022/05/26 03:06:40;;;;;;;21.27;5.80;;;13.50;99.90;;;;;;5055306;28;20083;-60
2022/05/26 03:09:07;;;;;;;21.10;5.18;;;13.50;99.90;;;;;;5047235;28;20036;-60
2022/05/26 03:11:47;;;;;;;24.05;4.80;;;13.50;99.90;;;;;;5058455;28;20044;-60
2022/05/26 03:14:15;;;;;;;26.48;5.38;;;13.40;99.90;;;;;;5056728;28;20137;-61
2022/05/26 03:16:41;;;;;;;25.88;5.68;;;13.40;99.90;;;;;;5058575;28;20044;-60
2022/05/26 03:19:08;;;;;;;23.33;5.30;;;13.40;99.90;;;;;;5057429;28;20578;-60
2022/05/26 03:21:34;;;;;;;22.85;5.15;;;13.40;99.90;;;;;;5059299;28;20618;-60
2022/05/26 03:24:00;;;;;;;20.30;4.47;;;13.40;99.90;;;;;;5056025;28;20033;-60
2022/05/26 03:26:26;;;;;;;23.05;4.63;;;13.40;99.90;;;;;;5057464;28;20052;-60
2022/05/26 03:28:51;;;;;;;18.42;5.05;;;13.40;99.90;;;;;;5054891;28;20052;-60
2022/05/26 03:31:17;;;;;;;18.85;4.68;;;13.30;99.90;;;;;;5060816;28;20072;-60
2022/05/26 03:42:05;;;;;;;19.10;4.63;;;13.30;99.90;;;;;;5059914;28;20052;-60
2022/05/26 03:44:33;;;;;;;17.88;3.83;;;13.20;99.90;;;;;;5057141;28;20055;-60
2022/05/26 03:46:59;;;;;;;18.63;4.65;;;13.20;99.90;;;;;;5063550;28;20056;-60
2022/05/26 03:49:25;;;;;;;20.30;4.50;;;13.20;99.90;;;;;;5060861;28;20108;-60
2022/05/26 03:51:51;;;;;;;16.42;3.60;;;13.20;99.90;;;;;;5060145;28;20074;-59
2022/05/26 03:54:16;;;;;;;12.68;3.92;;;13.20;99.90;;;;;;5060970;28;20044;-62
2022/05/26 03:56:43;;;;;;;16.52;4.00;;;13.20;99.90;;;;;;5058154;28;20048;-60
2022/05/26 03:59:09;;;;;;;13.07;3.53;;;13.20;99.90;;;;;;5060745;28;20044;-61
2022/05/26 04:01:35;;;;;;;13.07;3.50;;;13.20;99.90;;;;;;5034934;28;20984;-60
2022/05/26 04:04:01;;;;;;;11.93;2.95;;;13.20;99.90;;;;;;5060938;28;20379;-60
2022/05/26 04:06:28;;;;;;;14.93;3.65;;;13.20;99.90;;;;;;5062394;28;20051;-63
2022/05/26 04:08:54;;;;;;;11.75;2.85;;;13.20;99.90;;;;;;5063364;28;20055;-60
2022/05/26 04:11:24;;;;;;;13.32;3.10;;;13.20;99.90;;;;;;5060420;28;20044;-60
2022/05/26 04:13:53;;;;;;;12.70;2.95;;;13.20;99.90;;;;;;5062985;28;20138;-61
2022/05/26 04:16:20;;;;;;;14.23;2.90;;;13.20;99.90;;;;;;5060325;28;20402;-60
2022/05/26 04:18:45;;;;;;;11.85;2.70;;;13.20;99.90;;;;;;5057022;28;20113;-60
2022/05/26 04:21:13;;;;;;;16.63;2.85;;;13.20;99.90;;;;;;5057964;28;20047;-60
2022/05/26 04:23:39;;;;;;;10.77;2.60;;;13.30;99.90;;;;;;5056134;28;20151;-61
2022/05/26 04:26:07;;;;;;;9.65;2.50;;;13.30;99.90;;;;;;5058590;28;20063;-60
2022/05/26 04:28:34;;;;;;;10.30;2.80;;;13.30;99.90;;;;;;5058789;28;20060;-61
2022/05/26 04:31:00;;;;;;;11.27;2.70;;;13.30;99.90;;;;;;5060483;28;21039;-60
2022/05/26 04:33:26;;;;;;;10.15;2.65;;;13.30;99.90;;;;;;5061290;28;20087;-61
2022/05/26 04:35:53;;;;;;;12.90;2.40;;;13.30;99.90;;;;;;5058670;28;20095;-60
2022/05/26 04:38:19;;;;;;;9.02;2.17;;;13.30;99.90;;;;;;5054529;28;20044;-60
2022/05/26 04:40:54;;;;;;;15.18;2.92;;;13.30;99.90;;;;;;5055850;28;20406;-61
2022/05/26 04:43:21;;;;;;;12.50;2.92;;;13.30;99.90;;;;;;5059825;28;20052;-61
2022/05/26 04:45:47;;;;;;;13.25;3.13;;;13.20;99.90;;;;;;5056016;28;20177;-61
2022/05/26 04:48:13;;;;;;;10.52;3.03;;;13.20;99.90;;;;;;5050584;28;20560;-60
2022/05/26 04:50:39;;;;;;;12.35;2.67;;;13.20;99.90;;;;;;5058054;28;20478;-60
2022/05/26 04:53:05;;;;;;;8.95;2.80;;;13.20;99.90;;;;;;5057424;28;20048;-61
2022/05/26 04:55:31;;;;;;;10.57;2.25;;;13.20;99.90;;;;;;5054826;28;20997;-60
2022/05/26 04:57:56;;;;;;;11.95;2.28;;;13.20;99.90;;;;;;5052167;28;20058;-60
2022/05/26 05:00:22;;;;;;;11.98;2.55;;;13.20;99.90;;;;;;5058932;28;20189;-60
2022/05/26 05:02:48;;;;;;;9.90;2.08;;;13.20;99.90;;;;;;5058912;28;20045;-60
2022/05/26 05:05:14;;;;;;;7.82;1.80;;;13.20;99.90;;;;;;5054542;28;20388;-60
2022/05/26 05:07:40;;;;;;;7.90;1.95;;;13.20;99.90;;;;;;5063925;28;20044;-60
2022/05/26 05:10:06;;;;;;;6.47;1.80;;;13.20;99.90;;;;;;5059352;28;20483;-60
2022/05/26 05:12:32;;;;;;;8.15;1.70;;;13.30;99.90;;;;;;5057986;28;20172;-60
2022/05/26 05:14:58;;;;;;;8.85;2.00;;;13.30;99.90;;;;;;5061813;28;20120;-61
2022/05/26 05:17:26;;;;;;;7.03;1.92;;;13.30;99.90;;;;;;5059556;28;20113;-61
2022/05/26 05:19:52;;;;;;;8.45;2.38;;;13.30;99.90;;;;;;5061059;28;20456;-60
2022/05/26 05:22:31;;;;;;;8.98;1.80;;;13.40;99.90;;;;;;5056578;28;20059;-60
2022/05/26 05:25:04;;;;;;;11.23;2.25;;;13.40;99.90;;;;;;5061331;28;20036;-62
2022/05/26 05:27:33;;;;;;;;;;;13.40;99.90;;;;;;5072291;28;20056;-59
2022/05/26 05:30:04;;;;;;;11.43;2.00;;;13.40;99.90;;;;;;5041684;28;19960;-61
2022/05/26 05:32:39;;;;;;;7.60;1.83;;;13.40;99.90;;;;;;5057132;28;20040;-60
2022/05/26 05:35:11;;;;;;;9.60;1.92;;;13.50;99.90;;;;;;5051587;28;20051;-60
2022/05/26 05:37:37;;;;;;;12.90;2.42;;;13.50;99.90;;;;;;5058052;28;20398;-61
2022/05/26 05:40:04;;;;;;;12.48;2.17;;;13.50;99.90;;;;;;5039291;28;20059;-60
2022/05/26 05:42:30;;;;;;;9.70;2.00;;;13.50;99.90;;;;;;5057464;28;20105;-60
2022/05/26 05:44:58;;;;;;;14.18;1.85;;;13.60;99.90;;;;;;5057103;28;20586;-60
2022/05/26 05:47:24;;;;;;;10.93;2.00;;;13.60;99.90;;;;;;5055924;28;20036;-60
2022/05/26 05:49:51;;;;;;;14.25;2.20;;;13.70;99.90;;;;;;5056061;28;20082;-60
2022/05/26 05:52:22;;;;;;;8.57;1.80;;;13.70;99.90;;;;;;5056668;28;20049;-61
2022/05/26 05:54:49;;;;;;;7.28;1.98;;;13.70;99.90;;;;;;5054593;28;20036;-61
2022/05/26 05:57:15;;;;;;;10.35;1.80;;;13.80;99.90;;;;;;5053621;28;20052;-60
2022/05/26 05:59:40;;;;;;;7.85;1.60;;;13.80;99.90;;;;;;5047077;28;20068;-60
2022/05/26 06:02:07;;;;;;;11.48;1.77;;;13.90;99.90;;;;;;5044563;28;20048;-60
2022/05/26 06:04:41;;;;;;;11.65;2.05;;;13.90;99.90;;;;;;5039724;28;20052;-60
2022/05/26 06:07:12;;;;;;;8.77;1.98;;;14.00;99.90;;;;;;5044528;28;20166;-60
2022/05/26 06:09:38;;;;;;;9.77;2.08;;;14.00;99.90;;;;;;5025083;28;20528;-60
2022/05/26 06:12:04;;;;;;;10.48;1.98;;;14.10;99.90;;;;;;5047312;28;20163;-60
2022/05/26 06:14:30;;;;;;;7.50;1.65;;;14.20;99.90;;;;;;5056740;28;20063;-60
2022/05/26 06:16:56;;;;;;;6.25;1.80;;;14.20;99.90;;;;;;5054109;28;20119;-59
2022/05/26 06:19:22;;;;;;;9.95;1.98;;;14.30;99.90;;;;;;5053324;28;20058;-60
2022/05/26 06:21:48;;;;;;;13.43;2.15;;;14.40;99.90;;;;;;5031641;28;20096;-61
2022/05/26 06:24:14;;;;;;;10.40;2.00;;;14.40;99.90;;;;;;5034703;28;20110;-61
2022/05/26 06:26:39;;;;;;;16.65;2.25;;;14.50;99.90;;;;;;5052179;28;20446;-60
2022/05/26 06:37:27;;;;;;;12.27;1.50;;;14.90;99.90;;;;;;5057904;28;20094;-60
2022/05/26 06:39:55;;;;;;;8.07;1.50;;;15.00;99.90;;;;;;5057008;28;20053;-58
2022/05/26 06:42:24;;;;;;;14.20;1.88;;;15.10;99.90;;;;;;5052898;28;20044;-59
2022/05/26 06:44:50;;;;;;;9.57;1.67;;;15.30;99.90;;;;;;5052073;28;20527;-58
2022/05/26 06:47:19;;;;;;;9.75;1.63;;;15.40;99.90;;;;;;5055016;28;20115;-66
2022/05/26 06:49:45;;;;;;;9.15;1.70;;;15.40;99.90;;;;;;5057251;28;20119;-64
2022/05/26 06:52:12;;;;;;;10.32;1.80;;;15.50;99.90;;;;;;5053476;28;20383;-66
2022/05/26 06:54:41;;;;;;;13.07;2.13;;;15.50;99.90;;;;;;5032374;28;20845;-64
2022/05/26 06:57:09;;;;;;;7.63;1.70;;;15.50;99.90;;;;;;5051042;28;20123;-61
2022/05/26 06:59:36;;;;;;;9.35;1.63;;;15.60;99.90;;;;;;5049952;28;20040;-64
2022/05/26 07:02:04;;;;;;;10.32;1.60;;;15.60;99.90;;;;;;5031545;28;20136;-63
2022/05/26 07:04:29;;;;;;;8.77;1.80;;;15.60;99.90;;;;;;5042373;28;20115;-62
2022/05/26 07:06:55;;;;;;;4.90;1.40;;;15.60;99.90;;;;;;5043732;28;20048;-63
2022/05/26 07:09:23;;;;;;;11.25;2.17;;;15.60;99.90;;;;;;5043389;28;20222;-62
2022/05/26 07:11:48;;;;;;;11.82;1.75;;;15.50;99.90;;;;;;5045897;28;20043;-63
2022/05/26 07:14:15;;;;;;;9.63;1.58;;;15.50;99.90;;;;;;5045082;28;20473;-63
2022/05/26 07:16:42;;;;;;;8.75;1.70;;;15.50;99.90;;;;;;5046805;28;20041;-63
2022/05/26 07:19:08;;;;;;;6.25;1.48;;;15.50;99.90;;;;;;5058490;28;25032;-64
2022/05/26 07:21:34;;;;;;;12.23;1.80;;;15.50;99.90;;;;;;5053768;28;20056;-59
2022/05/26 07:24:00;;;;;;;6.65;1.20;;;15.50;99.90;;;;;;5035559;28;20052;-64
2022/05/26 07:26:28;;;;;;;6.15;1.65;;;15.40;99.90;;;;;;5059752;28;20501;-64
2022/05/26 07:28:55;;;;;;;11.48;1.50;;;15.40;99.90;;;;;;5065014;28;20052;-64
2022/05/26 07:31:21;;;;;;;7.28;1.65;;;15.60;99.90;;;;;;5058589;28;20043;-64
2022/05/26 07:33:47;;;;;;;8.45;1.45;;;15.80;99.90;;;;;;5050084;28;20048;-63
2022/05/26 07:41:45;;;;;;;7.75;1.58;;;16.20;99.90;;;;;;5047896;28;20048;-62
2022/05/26 07:44:11;;;;;;;8.45;1.60;;;16.30;99.90;;;;;;5045854;28;20163;-65
2022/05/26 07:46:37;;;;;;;8.05;1.40;;;16.40;99.90;;;;;;5043599;28;20083;-62
2022/05/26 07:49:05;;;;;;;8.32;1.63;;;16.50;99.90;;;;;;5044904;28;20219;-64
2022/05/26 07:51:31;;;;;;;5.32;1.63;;;16.60;99.90;;;;;;5031084;28;20170;-65
2022/05/26 07:54:00;;;;;;;8.23;1.50;;;16.60;99.90;;;;;;5041711;28;20059;-62
2022/05/26 07:56:30;;;;;;;9.60;1.65;;;16.60;99.90;;;;;;5041627;28;20131;-66
2022/05/26 07:58:56;;;;;;;5.93;1.63;;;16.60;99.90;;;;;;5036157;28;20624;-64
2022/05/26 08:01:22;;;;;;;8.20;1.90;;;16.60;99.90;;;;;;5041320;28;20074;-62
2022/05/26 08:03:48;;;;;;;8.68;1.55;;;16.60;99.90;;;;;;5043438;28;20041;-64
2022/05/26 08:06:14;;;;;;;5.85;1.30;;;16.60;99.90;;;;;;5043659;28;20041;-62
2022/05/26 08:08:40;;;;;;;10.52;1.85;;;16.70;99.90;;;;;;5048603;28;20048;-65
2022/05/26 08:11:06;;;;;;;7.47;1.35;;;16.70;99.90;;;;;;5042438;28;20598;-64
2022/05/26 08:13:32;;;;;;;9.23;1.50;;;16.70;99.90;;;;;;5049874;28;20044;-65
2022/05/26 08:15:58;;;;;;;8.00;1.63;;;16.70;99.90;;;;;;5028083;28;20044;-62
2022/05/26 08:18:25;;;;;;;9.57;1.23;;;16.70;99.90;;;;;;5048930;28;20059;-65
2022/05/26 08:20:51;;;;;;;8.77;1.58;;;16.70;99.90;;;;;;5055187;28;20059;-62
2022/05/26 08:23:17;;;;;;;9.25;1.30;;;16.70;99.90;;;;;;5041567;28;20048;-63
2022/05/26 08:25:43;;;;;;;7.78;1.40;;;16.80;99.90;;;;;;5036940;28;20049;-62
2022/05/26 08:28:09;;;;;;;5.05;1.15;;;16.80;99.90;;;;;;5031489;28;20407;-63
2022/05/26 08:30:34;;;;;;;9.40;1.60;;;16.80;99.90;;;;;;5038900;28;20171;-64
2022/05/26 08:33:00;;;;;;;6.55;1.35;;;16.70;99.90;;;;;;5034466;28;20040;-64
2022/05/26 08:35:26;;;;;;;7.45;1.67;;;16.80;99.90;;;;;;5031701;28;20098;-65
2022/05/26 08:37:52;;;;;;;10.38;1.90;;;16.80;99.90;;;;;;5031075;28;20044;-65
2022/05/26 08:40:27;;;;;;;8.40;1.25;;;16.90;99.90;;;;;;5037534;28;20056;-63
2022/05/26 08:42:53;;;;;;;6.45;1.30;;;17.00;99.90;;;;;;5030619;28;20432;-63
2022/05/26 08:45:19;;;;;;;5.95;1.30;;;17.10;99.90;;;;;;5030091;28;20102;-66
2022/05/26 08:47:47;;;;;;;8.90;1.80;;;17.20;99.90;;;;;;5017132;28;20049;-64
2022/05/26 08:50:20;;;;;;;7.63;1.30;;;17.30;99.90;;;;;;5033819;28;20581;-65
2022/05/26 08:52:57;;;;;;;8.57;2.00;;;17.40;99.90;;;;;;5034286;28;20138;-64
2022/05/26 08:55:34;;;;;;;8.63;1.27;;;17.50;99.90;;;;;;5034141;28;20052;-63
2022/05/26 08:58:26;;;;;;;6.93;1.45;;;17.70;99.90;;;;;;5035360;28;20546;-62
2022/05/26 09:00:53;;;;;;;5.90;1.38;;;17.90;99.90;;;;;;5028533;28;20044;-64
2022/05/26 09:03:25;;;;;;;7.25;1.23;;;17.90;99.80;;;;;;5028139;28;20048;-64
2022/05/26 09:06:08;;;;;;;8.05;1.55;;;18.00;99.00;;;;;;5034107;28;20056;-65
2022/05/26 09:14:22;;;;;;;7.78;1.23;;;18.10;98.60;;;;;;5027951;28;20040;-66
2022/05/26 09:16:48;;;;;;;4.38;1.20;;;18.20;97.90;;;;;;5028813;28;20056;-62
2022/05/26 09:19:19;;;;;;;6.05;1.00;;;18.10;97.00;;;;;;5023536;28;20064;-65
2022/05/26 09:21:48;;;;;;;3.88;1.23;;;17.90;96.30;;;;;;5020451;28;20052;-64
2022/05/26 09:24:26;;;;;;;7.43;1.30;;;17.80;96.30;;;;;;5032433;28;20190;-63
2022/05/26 09:27:34;;;;;;;9.88;1.20;;;17.70;96.50;;;;;;5032059;28;20048;-65
2022/05/26 09:30:26;;;;;;;5.10;1.05;;;17.60;96.50;;;;;;5033050;28;20060;-66
2022/05/26 09:32:53;;;;;;;6.03;0.97;;;17.50;96.20;;;;;;5037804;28;20049;-66
2022/05/26 09:35:18;;;;;;;5.65;1.27;;;17.40;95.90;;;;;;5040767;28;20694;-63
2022/05/26 09:37:50;;;;;;;7.32;1.05;;;17.40;96.00;;;;;;5035407;28;20056;-63
2022/05/26 09:40:20;;;;;;;4.10;1.17;;;17.50;96.20;;;;;;5027538;28;20059;-63
2022/05/26 09:42:51;;;;;;;3.88;1.25;;;17.50;95.90;;;;;;5029407;28;20411;-63
2022/05/26 09:45:20;;;;;;;5.72;1.17;;;17.50;96.10;;;;;;5036946;28;20044;-63
2022/05/26 09:47:59;;;;;;;4.53;0.98;;;17.60;96.40;;;;;;5025455;28;20055;-66
2022/05/26 09:50:35;;;;;;;5.07;1.25;;;17.70;96.60;;;;;;5028060;28;20036;-63
2022/05/26 09:53:05;;;;;;;7.30;1.13;;;17.80;96.60;;;;;;5031726;28;20051;-66
2022/05/26 09:55:44;;;;;;;4.30;0.95;;;18.10;96.30;;;;;;5024721;28;20048;-66
2022/05/26 09:58:27;;;;;;;5.50;1.00;;;18.40;96.10;;;;;;5030724;28;20051;-66
2022/05/26 10:01:02;;;;;;;6.68;1.10;;;18.60;95.60;;;;;;5028259;28;20060;-64
2022/05/26 10:03:56;;;;;;;5.90;1.13;;;18.80;94.90;;;;;;5029483;28;20051;-66
2022/05/26 10:06:40;;;;;;;3.63;1.10;;;18.80;93.70;;;;;;5028528;28;20055;-65
2022/05/26 10:09:21;;;;;;;3.83;1.00;;;19.00;93.20;;;;;;5032295;28;20048;-64
2022/05/26 10:12:09;;;;;;;3.75;1.00;;;19.10;91.80;;;;;;5029528;28;20055;-64
2022/05/26 10:15:08;;;;;;;6.35;1.40;;;19.20;92.60;;;;;;5026403;28;20049;-63
2022/05/26 10:18:05;;;;;;;8.15;1.30;;;19.30;91.70;;;;;;5024135;28;20086;-63
2022/05/26 10:20:46;;;;;;;7.55;1.42;;;19.20;91.30;;;;;;5029806;28;20491;-64
2022/05/26 10:23:37;;;;;;;7.05;1.35;;;19.10;90.30;;;;;;5042874;28;20466;-64
2022/05/26 10:26:24;;;;;;;4.50;1.02;;;18.90;91.00;;;;;;5028801;28;20059;-63
2022/05/26 10:29:28;;;;;;;6.30;1.23;;;18.90;89.30;;;;;;5028366;28;20189;-64
2022/05/26 10:32:14;;;;;;;4.53;1.25;;;18.70;90.40;;;;;;5017126;28;20041;-62
2022/05/26 10:35:18;;;;;;;10.57;1.33;;;18.70;90.60;;;;;;5026468;28;20344;-64
2022/05/26 10:38:07;;;;;;;6.47;1.10;;;18.60;90.70;;;;;;5026556;28;20059;-64
2022/05/26 10:41:01;;;;;;;7.70;1.20;;;18.60;90.50;;;;;;5029503;28;20113;-64
2022/05/26 10:43:47;;;;;;;3.55;1.08;;;18.50;90.80;;;;;;5034593;28;20402;-62
2022/05/26 10:46:16;;;;;;;6.63;1.23;;;18.40;91.30;;;;;;5037046;28;20049;-63
2022/05/26 10:49:16;;;;;;;5.18;1.40;;;18.50;91.80;;;;;;5030554;28;20963;-64
2022/05/26 10:52:21;;;;;;;7.70;1.42;;;18.60;92.50;;;;;;5038272;28;20059;-62
2022/05/26 10:54:55;;;;;;;9.50;1.80;;;18.90;93.20;;;;;;5033456;28;20516;-64
2022/05/26 10:57:44;;;;;;;5.40;1.02;;;19.40;92.70;;;;;;5032403;28;20466;-63
2022/05/26 11:00:16;;;;;;;6.75;1.40;;;19.70;92.50;;;;;;5031553;28;20053;-61
2022/05/26 11:03:00;;;;;;;38.70;2.13;;;19.80;91.70;;;;;;5031849;28;20141;-65
2022/05/26 11:05:48;;;;;;;6.80;1.77;;;19.90;91.10;;;;;;5032301;28;20714;-65
2022/05/26 11:08:40;;;;;;;4.75;1.20;;;19.90;90.60;;;;;;5031851;28;20122;-62
2022/05/26 11:11:11;;;;;;;3.83;1.13;;;19.90;90.50;;;;;;5031808;28;20041;-64
2022/05/26 11:14:05;;;;;;;5.97;1.10;;;20.20;90.30;;;;;;5034452;28;20045;-62
2022/05/26 11:19:49;;;;;;;4.60;1.30;;;20.20;88.20;;;;;;5035801;28;20634;-64
2022/05/26 11:22:15;;;;;;;7.57;1.60;;;20.20;87.60;;;;;;5032197;28;20056;-69
2022/05/26 11:24:51;;;;;;;11.57;1.50;;;20.20;88.50;;;;;;5041059;28;20068;-66
2022/05/26 11:27:29;;;;;;;8.90;1.77;;;20.30;87.90;;;;;;5032932;28;20512;-68
2022/05/26 11:36:34;;;;;;;7.47;1.25;;;20.80;83.90;;;;;;4931971;28;20057;-69
2022/05/26 11:39:01;;;;;;;8.68;1.30;;;20.60;82.80;;;;;;5015237;28;20056;-69
2022/05/26 11:41:47;;;;;;;6.38;1.52;;;20.30;84.20;;;;;;5036528;28;20146;-66
2022/05/26 11:44:37;;;;;;;5.80;1.45;;;20.20;86.00;;;;;;5030091;28;20486;-69
2022/05/26 11:47:41;;;;;;;7.18;1.30;;;20.00;87.00;;;;;;5027776;28;20059;-68
2022/05/26 11:50:25;;;;;;;9.48;1.45;;;19.90;87.10;;;;;;5035478;28;20048;-67
2022/05/26 11:53:00;;;;;;;4.03;1.20;;;19.90;87.60;;;;;;5031239;28;20048;-67
2022/05/26 11:55:44;;;;;;;6.45;1.05;;;19.90;86.30;;;;;;5014387;28;20174;-66
2022/05/26 11:58:29;;;;;;;4.68;1.20;;;19.90;86.00;;;;;;5022810;28;20111;-66
2022/05/26 12:01:19;;;;;;;8.80;1.15;;;20.10;85.60;;;;;;5031232;28;20058;-66
2022/05/26 12:03:54;;;;;;;7.78;1.63;;;20.20;85.00;;;;;;5029464;28;20080;-67
2022/05/26 12:06:38;;;;;;;4.25;1.50;;;20.00;86.20;;;;;;5014340;28;20103;-66
2022/05/26 12:09:37;;;;;;;6.30;1.33;;;20.00;87.20;;;;;;5039024;28;20155;-65
2022/05/26 12:12:07;;;;;;;7.28;1.42;;;19.90;87.10;;;;;;5032105;28;20055;-66
2022/05/26 12:14:46;;;;;;;4.82;1.20;;;19.90;86.70;;;;;;5025458;28;20102;-67
2022/05/26 12:17:30;;;;;;;6.38;1.40;;;19.90;86.90;;;;;;5016848;28;20047;-67
2022/05/26 12:20:10;;;;;;;6.45;1.30;;;19.90;87.00;;;;;;5033483;28;20487;-67
2022/05/26 12:22:46;;;;;;;6.85;1.30;;;19.90;86.50;;;;;;5030458;28;20045;-65
2022/05/26 12:25:28;;;;;;;6.40;1.40;;;20.00;85.10;;;;;;5029695;28;20136;-65
2022/05/26 12:28:05;;;;;;;7.55;1.45;;;20.00;84.50;;;;;;5030322;28;20100;-65
2022/05/26 12:30:45;;;;;;;4.65;1.30;;;20.00;84.80;;;;;;5016350;28;20663;-65
2022/05/26 12:33:47;;;;;;;6.68;1.50;;;20.00;85.60;;;;;;5030850;28;20055;-66
2022/05/26 12:36:20;;;;;;;6.15;1.35;;;20.20;86.10;;;;;;5019358;28;20566;-66
2022/05/26 12:39:14;;;;;;;8.02;1.40;;;20.30;84.30;;;;;;5034004;28;20145;-65
2022/05/26 12:42:06;;;;;;;3.60;1.15;;;20.20;85.20;;;;;;5033841;28;20045;-63
2022/05/26 12:44:53;;;;;;;6.88;1.55;;;20.20;86.60;;;;;;5027930;28;20055;-62
2022/05/26 12:47:36;;;;;;;5.07;1.40;;;20.30;86.30;;;;;;5036591;28;20049;-62
2022/05/26 12:50:02;;;;;;;6.30;1.70;;;20.10;86.00;;;;;;5037847;28;20059;-63
2022/05/26 12:52:41;;;;;;;5.47;1.80;;;20.00;86.80;;;;;;5031797;28;20433;-62
2022/05/26 12:55:35;;;;;;;7.65;1.35;;;20.00;87.30;;;;;;5030958;28;20041;-63
2022/05/26 12:58:15;;;;;;;5.88;1.30;;;19.90;87.50;;;;;;5033941;28;20049;-63
2022/05/26 13:00:44;;;;;;;5.80;1.23;;;19.80;86.50;;;;;;5023550;28;20506;-63
2022/05/26 13:03:36;;;;;;;6.50;1.40;;;19.70;86.80;;;;;;5031802;28;20049;-63
2022/05/26 13:06:07;;;;;;;5.50;1.33;;;19.70;87.40;;;;;;5033063;28;20072;-63
2022/05/26 13:09:13;;;;;;;7.70;1.58;;;19.60;87.90;;;;;;5034285;28;20542;-62
2022/05/26 13:11:48;;;;;;;6.13;1.80;;;19.50;88.50;;;;;;5018751;28;20863;-63
2022/05/26 13:14:36;;;;;;;8.50;1.63;;;19.40;87.90;;;;;;5050175;28;20049;-62
2022/05/26 13:17:19;;;;;;;7.45;1.73;;;19.30;87.50;;;;;;5033247;28;20052;-62
2022/05/26 13:19:50;;;;;;;6.88;1.45;;;19.20;88.70;;;;;;5033749;28;20506;-62
2022/05/26 13:22:37;;;;;;;11.90;1.25;;;19.20;89.90;;;;;;5034476;28;20547;-62
2022/05/26 13:25:14;;;;;;;6.72;1.52;;;19.20;90.00;;;;;;5042302;28;20091;-62
2022/05/26 13:28:10;;;;;;;6.82;1.40;;;19.10;90.40;;;;;;5037011;28;21700;-62
2022/05/26 13:33:48;;;;;;;5.50;1.35;;;19.00;91.30;;;;;;5041593;28;20174;-62
2022/05/26 13:36:22;;;;;;;5.65;1.30;;;19.00;91.50;;;;;;5036746;28;20112;-62
2022/05/26 13:38:48;;;;;;;4.80;1.50;;;19.00;92.10;;;;;;5033727;28;20091;-62
2022/05/26 13:41:26;;;;;;;8.60;1.50;;;19.00;92.30;;;;;;5037046;28;20044;-63
2022/05/26 13:43:54;;;;;;;9.77;1.50;;;19.00;92.40;;;;;;5037993;28;20417;-63
2022/05/26 13:46:32;;;;;;;5.68;1.85;;;19.00;92.00;;;;;;5037538;28;21099;-62
2022/05/26 13:49:27;;;;;;;5.75;1.88;;;18.90;92.30;;;;;;5033270;28;20068;-63
2022/05/26 13:51:54;;;;;;;7.38;1.80;;;19.00;92.70;;;;;;5026736;28;20079;-62
2022/05/26 13:54:31;;;;;;;5.38;1.50;;;19.00;92.90;;;;;;5032401;28;20048;-62
2022/05/26 13:57:02;;;;;;;12.05;2.10;;;18.90;92.70;;;;;;5028856;28;20080;-59
2022/05/26 13:59:34;;;;;;;11.15;2.15;;;19.00;92.70;;;;;;5032823;28;20063;-60
2022/05/26 14:02:22;;;;;;;6.97;1.70;;;18.90;92.70;;;;;;5032219;28;20529;-60